sensor_id;sensor_type;location;lat;lon;timestamp;pressure;altitude;pressure_sealevel;temperature
68127;BMP180;54931;52.098;21.006;2023-04-25T00:01:43;99007.80;;;10.10
68127;BMP180;54931;52.098;21.006;2023-04-25T00:04:11;99010.20;;;10.00
68127;BMP180;54931;52.098;21.006;2023-04-25T00:06:39;99007.60;;;9.92
68127;BMP180;54931;52.098;21.006;2023-04-25T00:09:07;99006.60;;;9.90
68127;BMP180;54931;52.098;21.006;2023-04-25T00:11:37;99005.60;;;9.90
68127;BMP180;54931;52.098;21.006;2023-04-25T00:14:05;99001.60;;;9.90
68127;BMP180;54931;52.098;21.006;2023-04-25T00:16:34;99006.60;;;9.86
68127;BMP180;54931;52.098;21.006;2023-04-25T00:19:03;99008.00;;;9.90
68127;BMP180;54931;52.098;21.006;2023-04-25T00:21:31;99010.00;;;9.92
68127;BMP180;54931;52.098;21.006;2023-04-25T00:24:00;99016.40;;;10.00
68127;BMP180;54931;52.098;21.006;2023-04-25T00:26:28;99010.20;;;10.00
68127;BMP180;54931;52.098;21.006;2023-04-25T00:28:55;99015.20;;;10.00
68127;BMP180;54931;52.098;21.006;2023-04-25T00:31:23;99009.20;;;10.00
68127;BMP180;54931;52.098;21.006;2023-04-25T00:33:51;99002.20;;;9.94
68127;BMP180;54931;52.098;21.006;2023-04-25T00:36:19;99000.20;;;9.90
68127;BMP180;54931;52.098;21.006;2023-04-25T00:38:47;99000.60;;;9.90
68127;BMP180;54931;52.098;21.006;2023-04-25T00:41:15;98998.60;;;9.90
68127;BMP180;54931;52.098;21.006;2023-04-25T00:43:45;98996.80;;;9.80
68127;BMP180;54931;52.098;21.006;2023-04-25T00:46:14;99000.40;;;9.80
68127;BMP180;54931;52.098;21.006;2023-04-25T00:48:41;99001.80;;;9.80
68127;BMP180;54931;52.098;21.006;2023-04-25T00:51:16;99002.60;;;9.78
68127;BMP180;54931;52.098;21.006;2023-04-25T00:53:49;99004.80;;;9.70
68127;BMP180;54931;52.098;21.006;2023-04-25T00:56:17;99013.00;;;9.66
68127;BMP180;54931;52.098;21.006;2023-04-25T00:58:45;99013.00;;;9.60
68127;BMP180;54931;52.098;21.006;2023-04-25T01:01:13;99017.40;;;9.50
68127;BMP180;54931;52.098;21.006;2023-04-25T01:03:42;99012.80;;;9.50
68127;BMP180;54931;52.098;21.006;2023-04-25T01:06:11;99013.60;;;9.50
68127;BMP180;54931;52.098;21.006;2023-04-25T01:08:39;99010.20;;;9.40
68127;BMP180;54931;52.098;21.006;2023-04-25T01:11:07;99009.20;;;9.40
68127;BMP180;54931;52.098;21.006;2023-04-25T01:13:35;99002.40;;;9.36
68127;BMP180;54931;52.098;21.006;2023-04-25T01:16:05;98997.60;;;9.30
68127;BMP180;54931;52.098;21.006;2023-04-25T01:18:32;99002.80;;;9.22
68127;BMP180;54931;52.098;21.006;2023-04-25T01:21:11;99003.20;;;9.20
68127;BMP180;54931;52.098;21.006;2023-04-25T01:23:41;99000.60;;;9.12
68127;BMP180;54931;52.098;21.006;2023-04-25T01:26:11;98996.00;;;9.10
68127;BMP180;54931;52.098;21.006;2023-04-25T01:28:40;98996.40;;;9.10
68127;BMP180;54931;52.098;21.006;2023-04-25T01:31:09;98997.40;;;9.06
68127;BMP180;54931;52.098;21.006;2023-04-25T01:33:37;98997.40;;;9.00
68127;BMP180;54931;52.098;21.006;2023-04-25T01:36:06;98994.00;;;9.00
68127;BMP180;54931;52.098;21.006;2023-04-25T01:38:35;99000.40;;;9.00
68127;BMP180;54931;52.098;21.006;2023-04-25T01:41:03;99001.00;;;9.00
68127;BMP180;54931;52.098;21.006;2023-04-25T01:43:31;99003.00;;;9.00
68127;BMP180;54931;52.098;21.006;2023-04-25T01:45:59;98999.20;;;9.00
68127;BMP180;54931;52.098;21.006;2023-04-25T01:48:27;99002.60;;;8.90
68127;BMP180;54931;52.098;21.006;2023-04-25T01:50:55;99002.60;;;8.90
68127;BMP180;54931;52.098;21.006;2023-04-25T01:53:24;98999.20;;;8.90
68127;BMP180;54931;52.098;21.006;2023-04-25T01:55:52;99001.40;;;8.90
68127;BMP180;54931;52.098;21.006;2023-04-25T01:58:20;99000.20;;;8.90
68127;BMP180;54931;52.098;21.006;2023-04-25T02:00:48;98997.00;;;8.90
68127;BMP180;54931;52.098;21.006;2023-04-25T02:03:15;98997.00;;;8.92
68127;BMP180;54931;52.098;21.006;2023-04-25T02:05:43;98993.00;;;8.98
68127;BMP180;54931;52.098;21.006;2023-04-25T02:08:11;98983.40;;;9.00
68127;BMP180;54931;52.098;21.006;2023-04-25T02:10:39;98980.20;;;9.00
68127;BMP180;54931;52.098;21.006;2023-04-25T02:13:07;98984.20;;;9.02
68127;BMP180;54931;52.098;21.006;2023-04-25T02:15:35;98981.20;;;9.10
68127;BMP180;54931;52.098;21.006;2023-04-25T02:18:04;98984.80;;;9.16
68127;BMP180;54931;52.098;21.006;2023-04-25T02:20:34;98987.20;;;9.12
68127;BMP180;54931;52.098;21.006;2023-04-25T02:23:03;98990.20;;;9.20
68127;BMP180;54931;52.098;21.006;2023-04-25T02:25:31;98990.60;;;9.14
68127;BMP180;54931;52.098;21.006;2023-04-25T02:27:58;98993.60;;;9.12
68127;BMP180;54931;52.098;21.006;2023-04-25T02:30:27;98995.80;;;9.20
68127;BMP180;54931;52.098;21.006;2023-04-25T02:32:55;98994.40;;;9.20
68127;BMP180;54931;52.098;21.006;2023-04-25T02:35:24;98992.00;;;9.20
68127;BMP180;54931;52.098;21.006;2023-04-25T02:37:52;98989.80;;;9.20
68127;BMP180;54931;52.098;21.006;2023-04-25T02:40:20;98983.60;;;9.20
68127;BMP180;54931;52.098;21.006;2023-04-25T02:42:48;98984.40;;;9.20
68127;BMP180;54931;52.098;21.006;2023-04-25T02:45:16;98982.80;;;9.20
68127;BMP180;54931;52.098;21.006;2023-04-25T02:47:44;98973.80;;;9.20
68127;BMP180;54931;52.098;21.006;2023-04-25T02:50:12;98979.00;;;9.20
68127;BMP180;54931;52.098;21.006;2023-04-25T02:52:40;98977.40;;;9.20
68127;BMP180;54931;52.098;21.006;2023-04-25T02:55:08;98981.20;;;9.30
68127;BMP180;54931;52.098;21.006;2023-04-25T02:57:37;98976.80;;;9.30
68127;BMP180;54931;52.098;21.006;2023-04-25T03:00:06;98977.60;;;9.32
68127;BMP180;54931;52.098;21.006;2023-04-25T03:02:35;98979.20;;;9.40
68127;BMP180;54931;52.098;21.006;2023-04-25T03:05:04;98975.80;;;9.40
68127;BMP180;54931;52.098;21.006;2023-04-25T03:07:33;98973.60;;;9.40
68127;BMP180;54931;52.098;21.006;2023-04-25T03:10:00;98978.80;;;9.44
68127;BMP180;54931;52.098;21.006;2023-04-25T03:12:28;98972.60;;;9.50
68127;BMP180;54931;52.098;21.006;2023-04-25T03:14:56;98976.20;;;9.54
68127;BMP180;54931;52.098;21.006;2023-04-25T03:17:24;98977.60;;;9.60
68127;BMP180;54931;52.098;21.006;2023-04-25T03:19:52;98980.00;;;9.64
68127;BMP180;54931;52.098;21.006;2023-04-25T03:22:20;98985.00;;;9.70
68127;BMP180;54931;52.098;21.006;2023-04-25T03:24:48;98984.20;;;9.80
68127;BMP180;54931;52.098;21.006;2023-04-25T03:27:16;98981.60;;;9.80
68127;BMP180;54931;52.098;21.006;2023-04-25T03:29:44;98982.60;;;9.90
68127;BMP180;54931;52.098;21.006;2023-04-25T03:32:11;98984.60;;;9.90
68127;BMP180;54931;52.098;21.006;2023-04-25T03:34:39;98993.00;;;10.00
68127;BMP180;54931;52.098;21.006;2023-04-25T03:37:07;98993.00;;;10.04
68127;BMP180;54931;52.098;21.006;2023-04-25T03:39:35;98996.00;;;10.10
68127;BMP180;54931;52.098;21.006;2023-04-25T03:42:04;98999.80;;;10.20
68127;BMP180;54931;52.098;21.006;2023-04-25T03:44:31;99001.40;;;10.20
68127;BMP180;54931;52.098;21.006;2023-04-25T03:46:59;99003.00;;;10.30
68127;BMP180;54931;52.098;21.006;2023-04-25T03:49:30;99008.20;;;10.30
68127;BMP180;54931;52.098;21.006;2023-04-25T03:51:58;99008.00;;;10.40
68127;BMP180;54931;52.098;21.006;2023-04-25T03:54:27;99006.80;;;10.40
68127;BMP180;54931;52.098;21.006;2023-04-25T03:56:54;99005.00;;;10.42
68127;BMP180;54931;52.098;21.006;2023-04-25T03:59:22;99006.40;;;10.50
68127;BMP180;54931;52.098;21.006;2023-04-25T04:01:50;99000.60;;;10.50
68127;BMP180;54931;52.098;21.006;2023-04-25T04:04:18;98999.60;;;10.58
68127;BMP180;54931;52.098;21.006;2023-04-25T04:06:47;99002.20;;;10.60
68127;BMP180;54931;52.098;21.006;2023-04-25T04:09:14;99004.00;;;10.60
68127;BMP180;54931;52.098;21.006;2023-04-25T04:11:43;99006.40;;;10.60
68127;BMP180;54931;52.098;21.006;2023-04-25T04:14:10;99008.40;;;10.60
68127;BMP180;54931;52.098;21.006;2023-04-25T04:16:38;99009.40;;;10.62
68127;BMP180;54931;52.098;21.006;2023-04-25T04:19:06;99007.40;;;10.70
68127;BMP180;54931;52.098;21.006;2023-04-25T04:21:34;99011.20;;;10.70
68127;BMP180;54931;52.098;21.006;2023-04-25T04:24:03;99009.20;;;10.70
68127;BMP180;54931;52.098;21.006;2023-04-25T04:26:32;99008.40;;;10.70
68127;BMP180;54931;52.098;21.006;2023-04-25T04:29:01;99009.40;;;10.70
68127;BMP180;54931;52.098;21.006;2023-04-25T04:31:29;99015.60;;;10.70
68127;BMP180;54931;52.098;21.006;2023-04-25T04:33:57;99019.00;;;10.70
68127;BMP180;54931;52.098;21.006;2023-04-25T04:36:25;99017.60;;;10.70
68127;BMP180;54931;52.098;21.006;2023-04-25T04:38:54;99021.20;;;10.70
68127;BMP180;54931;52.098;21.006;2023-04-25T04:41:23;99025.00;;;10.70
68127;BMP180;54931;52.098;21.006;2023-04-25T04:43:51;99025.00;;;10.64
68127;BMP180;54931;52.098;21.006;2023-04-25T04:46:20;99031.40;;;10.60
68127;BMP180;54931;52.098;21.006;2023-04-25T04:48:49;99026.20;;;10.60
68127;BMP180;54931;52.098;21.006;2023-04-25T04:51:16;99027.20;;;10.60
68127;BMP180;54931;52.098;21.006;2023-04-25T04:53:45;99031.40;;;10.50
68127;BMP180;54931;52.098;21.006;2023-04-25T04:56:13;99031.40;;;10.50
68127;BMP180;54931;52.098;21.006;2023-04-25T04:58:40;99034.20;;;10.46
68127;BMP180;54931;52.098;21.006;2023-04-25T05:01:08;99039.20;;;10.40
68127;BMP180;54931;52.098;21.006;2023-04-25T05:03:36;99040.00;;;10.40
68127;BMP180;54931;52.098;21.006;2023-04-25T05:06:05;99038.60;;;10.30
68127;BMP180;54931;52.098;21.006;2023-04-25T05:08:33;99044.00;;;10.30
68127;BMP180;54931;52.098;21.006;2023-04-25T05:11:02;99041.80;;;10.20
68127;BMP180;54931;52.098;21.006;2023-04-25T05:13:30;99038.80;;;10.20
68127;BMP180;54931;52.098;21.006;2023-04-25T05:15:57;99042.20;;;10.16
68127;BMP180;54931;52.098;21.006;2023-04-25T05:18:26;99036.60;;;10.10
68127;BMP180;54931;52.098;21.006;2023-04-25T05:20:53;99039.40;;;10.10
68127;BMP180;54931;52.098;21.006;2023-04-25T05:23:21;99035.60;;;10.10
68127;BMP180;54931;52.098;21.006;2023-04-25T05:25:49;99034.80;;;10.10
68127;BMP180;54931;52.098;21.006;2023-04-25T05:28:17;99036.80;;;10.10
68127;BMP180;54931;52.098;21.006;2023-04-25T05:30:44;99035.40;;;10.10
68127;BMP180;54931;52.098;21.006;2023-04-25T05:33:12;99033.00;;;10.10
68127;BMP180;54931;52.098;21.006;2023-04-25T05:35:40;99041.60;;;10.06
68127;BMP180;54931;52.098;21.006;2023-04-25T05:38:08;99047.00;;;10.00
68127;BMP180;54931;52.098;21.006;2023-04-25T05:40:36;99048.00;;;10.00
68127;BMP180;54931;52.098;21.006;2023-04-25T05:43:04;99048.20;;;10.00
68127;BMP180;54931;52.098;21.006;2023-04-25T05:45:31;99053.40;;;10.00
68127;BMP180;54931;52.098;21.006;2023-04-25T05:48:00;99048.80;;;10.00
68127;BMP180;54931;52.098;21.006;2023-04-25T05:50:28;99051.80;;;10.00
68127;BMP180;54931;52.098;21.006;2023-04-25T05:52:55;99048.40;;;10.00
68127;BMP180;54931;52.098;21.006;2023-04-25T05:55:23;99058.20;;;10.00
68127;BMP180;54931;52.098;21.006;2023-04-25T05:57:51;99062.60;;;10.00
68127;BMP180;54931;52.098;21.006;2023-04-25T06:00:19;99069.60;;;9.94
68127;BMP180;54931;52.098;21.006;2023-04-25T06:02:46;99076.40;;;9.90
68127;BMP180;54931;52.098;21.006;2023-04-25T06:05:14;99081.60;;;9.90
68127;BMP180;54931;52.098;21.006;2023-04-25T06:07:42;99078.00;;;9.86
68127;BMP180;54931;52.098;21.006;2023-04-25T06:10:11;99087.80;;;9.80
68127;BMP180;54931;52.098;21.006;2023-04-25T06:12:39;99099.80;;;9.80
68127;BMP180;54931;52.098;21.006;2023-04-25T06:15:07;99105.20;;;9.70
68127;BMP180;54931;52.098;21.006;2023-04-25T06:17:36;99103.40;;;9.70
68127;BMP180;54931;52.098;21.006;2023-04-25T06:20:04;99103.80;;;9.60
68127;BMP180;54931;52.098;21.006;2023-04-25T06:22:33;99102.20;;;9.60
68127;BMP180;54931;52.098;21.006;2023-04-25T06:25:01;99106.00;;;9.60
68127;BMP180;54931;52.098;21.006;2023-04-25T06:27:33;99099.80;;;9.60
68127;BMP180;54931;52.098;21.006;2023-04-25T06:30:00;99098.40;;;9.60
68127;BMP180;54931;52.098;21.006;2023-04-25T06:32:30;99092.40;;;9.60
68127;BMP180;54931;52.098;21.006;2023-04-25T06:34:58;99090.40;;;9.60
68127;BMP180;54931;52.098;21.006;2023-04-25T06:37:26;99090.20;;;9.60
68127;BMP180;54931;52.098;21.006;2023-04-25T06:39:54;99086.80;;;9.60
68127;BMP180;54931;52.098;21.006;2023-04-25T06:42:22;99089.00;;;9.60
68127;BMP180;54931;52.098;21.006;2023-04-25T06:44:49;99089.00;;;9.60
68127;BMP180;54931;52.098;21.006;2023-04-25T06:47:17;99087.00;;;9.50
68127;BMP180;54931;52.098;21.006;2023-04-25T06:49:45;99095.80;;;9.50
68127;BMP180;54931;52.098;21.006;2023-04-25T06:52:13;99089.20;;;9.40
68127;BMP180;54931;52.098;21.006;2023-04-25T06:54:41;99086.60;;;9.40
68127;BMP180;54931;52.098;21.006;2023-04-25T06:57:09;99088.40;;;9.36
68127;BMP180;54931;52.098;21.006;2023-04-25T06:59:38;99090.20;;;9.40
68127;BMP180;54931;52.098;21.006;2023-04-25T07:02:06;99093.40;;;9.40
68127;BMP180;54931;52.098;21.006;2023-04-25T07:04:35;99089.00;;;9.44
68127;BMP180;54931;52.098;21.006;2023-04-25T07:07:03;99088.20;;;9.50
68127;BMP180;54931;52.098;21.006;2023-04-25T07:09:31;99088.00;;;9.60
68127;BMP180;54931;52.098;21.006;2023-04-25T07:12:01;99087.20;;;9.68
68127;BMP180;54931;52.098;21.006;2023-04-25T07:14:29;99091.20;;;9.74
68127;BMP180;54931;52.098;21.006;2023-04-25T07:16:57;99083.60;;;9.80
68127;BMP180;54931;52.098;21.006;2023-04-25T07:19:25;99082.40;;;9.80
68127;BMP180;54931;52.098;21.006;2023-04-25T07:21:54;99081.40;;;9.82
68127;BMP180;54931;52.098;21.006;2023-04-25T07:24:21;99096.80;;;9.90
68127;BMP180;54931;52.098;21.006;2023-04-25T07:26:49;99094.40;;;9.96
68127;BMP180;54931;52.098;21.006;2023-04-25T07:29:17;99096.60;;;9.90
68127;BMP180;54931;52.098;21.006;2023-04-25T07:31:45;99096.80;;;9.80
68127;BMP180;54931;52.098;21.006;2023-04-25T07:34:13;99100.80;;;9.70
68127;BMP180;54931;52.098;21.006;2023-04-25T07:36:40;99100.20;;;9.70
68127;BMP180;54931;52.098;21.006;2023-04-25T07:39:08;99090.80;;;9.60
68127;BMP180;54931;52.098;21.006;2023-04-25T07:41:36;99095.60;;;9.60
68127;BMP180;54931;52.098;21.006;2023-04-25T07:44:04;99094.80;;;9.50
68127;BMP180;54931;52.098;21.006;2023-04-25T07:46:32;99098.00;;;9.52
68127;BMP180;54931;52.098;21.006;2023-04-25T07:49:00;99089.40;;;9.50
68127;BMP180;54931;52.098;21.006;2023-04-25T07:51:28;99096.40;;;9.48
68127;BMP180;54931;52.098;21.006;2023-04-25T07:53:56;99093.60;;;9.40
68127;BMP180;54931;52.098;21.006;2023-04-25T07:56:24;99103.60;;;9.40
68127;BMP180;54931;52.098;21.006;2023-04-25T07:58:52;99109.40;;;9.40
68127;BMP180;54931;52.098;21.006;2023-04-25T08:01:20;99104.80;;;9.50
68127;BMP180;54931;52.098;21.006;2023-04-25T08:03:49;99107.40;;;9.50
68127;BMP180;54931;52.098;21.006;2023-04-25T08:06:17;99107.60;;;9.50
68127;BMP180;54931;52.098;21.006;2023-04-25T08:08:45;99110.20;;;9.60
68127;BMP180;54931;52.098;21.006;2023-04-25T08:11:13;99112.00;;;9.50
68127;BMP180;54931;52.098;21.006;2023-04-25T08:13:41;99114.20;;;9.50
68127;BMP180;54931;52.098;21.006;2023-04-25T08:16:09;99121.00;;;9.40
68127;BMP180;54931;52.098;21.006;2023-04-25T08:18:37;99125.20;;;9.40
68127;BMP180;54931;52.098;21.006;2023-04-25T08:21:05;99123.40;;;9.34
68127;BMP180;54931;52.098;21.006;2023-04-25T08:23:34;99129.60;;;9.26
68127;BMP180;54931;52.098;21.006;2023-04-25T08:26:02;99133.60;;;9.20
68127;BMP180;54931;52.098;21.006;2023-04-25T08:28:31;99136.20;;;9.10
68127;BMP180;54931;52.098;21.006;2023-04-25T08:30:59;99131.60;;;9.10
68127;BMP180;54931;52.098;21.006;2023-04-25T08:33:27;99141.60;;;9.00
68127;BMP180;54931;52.098;21.006;2023-04-25T08:35:55;99145.40;;;9.00
68127;BMP180;54931;52.098;21.006;2023-04-25T08:38:23;99144.80;;;8.92
68127;BMP180;54931;52.098;21.006;2023-04-25T08:40:51;99148.80;;;8.90
68127;BMP180;54931;52.098;21.006;2023-04-25T08:43:20;99145.40;;;8.90
68127;BMP180;54931;52.098;21.006;2023-04-25T08:45:48;99146.00;;;8.90
68127;BMP180;54931;52.098;21.006;2023-04-25T08:48:17;99146.20;;;8.82
68127;BMP180;54931;52.098;21.006;2023-04-25T08:50:53;99146.20;;;8.80
68127;BMP180;54931;52.098;21.006;2023-04-25T08:53:32;99154.40;;;8.80
68127;BMP180;54931;52.098;21.006;2023-04-25T08:56:01;99153.00;;;8.80
68127;BMP180;54931;52.098;21.006;2023-04-25T08:58:30;99156.60;;;8.80
68127;BMP180;54931;52.098;21.006;2023-04-25T09:00:59;99157.40;;;8.80
68127;BMP180;54931;52.098;21.006;2023-04-25T09:03:28;99158.80;;;8.80
68127;BMP180;54931;52.098;21.006;2023-04-25T09:05:55;99164.00;;;8.82
68127;BMP180;54931;52.098;21.006;2023-04-25T09:08:23;99165.20;;;8.90
68127;BMP180;54931;52.098;21.006;2023-04-25T09:10:52;99176.00;;;8.90
68127;BMP180;54931;52.098;21.006;2023-04-25T09:13:28;99177.20;;;8.90
68127;BMP180;54931;52.098;21.006;2023-04-25T09:15:58;99185.60;;;8.90
68127;BMP180;54931;52.098;21.006;2023-04-25T09:18:29;99188.80;;;8.90
68127;BMP180;54931;52.098;21.006;2023-04-25T09:21:11;99191.80;;;8.88
68127;BMP180;54931;52.098;21.006;2023-04-25T09:23:48;99196.80;;;8.80
68127;BMP180;54931;52.098;21.006;2023-04-25T09:26:20;99199.40;;;8.80
68127;BMP180;54931;52.098;21.006;2023-04-25T09:28:48;99199.60;;;8.90
68127;BMP180;54931;52.098;21.006;2023-04-25T09:31:23;99200.40;;;9.00
68127;BMP180;54931;52.098;21.006;2023-04-25T09:33:59;99205.00;;;9.02
68127;BMP180;54931;52.098;21.006;2023-04-25T09:36:30;99199.60;;;9.12
68127;BMP180;54931;52.098;21.006;2023-04-25T09:39:00;99199.60;;;9.20
68127;BMP180;54931;52.098;21.006;2023-04-25T09:41:28;99202.00;;;9.10
68127;BMP180;54931;52.098;21.006;2023-04-25T09:43:57;99197.80;;;9.00
68127;BMP180;54931;52.098;21.006;2023-04-25T09:46:34;99198.40;;;9.02
68127;BMP180;54931;52.098;21.006;2023-04-25T09:49:08;99194.40;;;9.10
68127;BMP180;54931;52.098;21.006;2023-04-25T09:51:36;99194.40;;;9.00
68127;BMP180;54931;52.098;21.006;2023-04-25T09:54:03;99199.00;;;9.00
68127;BMP180;54931;52.098;21.006;2023-04-25T09:56:36;99199.60;;;9.00
68127;BMP180;54931;52.098;21.006;2023-04-25T09:59:08;99202.20;;;9.00
68127;BMP180;54931;52.098;21.006;2023-04-25T10:01:40;99206.40;;;8.98
68127;BMP180;54931;52.098;21.006;2023-04-25T10:04:11;99204.80;;;8.90
68127;BMP180;54931;52.098;21.006;2023-04-25T10:06:42;99213.80;;;8.90
68127;BMP180;54931;52.098;21.006;2023-04-25T10:09:12;99212.60;;;8.90
68127;BMP180;54931;52.098;21.006;2023-04-25T10:11:41;99208.60;;;8.90
68127;BMP180;54931;52.098;21.006;2023-04-25T10:14:12;99206.80;;;8.90
68127;BMP180;54931;52.098;21.006;2023-04-25T10:16:41;99204.00;;;8.90
68127;BMP180;54931;52.098;21.006;2023-04-25T10:19:10;99211.00;;;8.80
68127;BMP180;54931;52.098;21.006;2023-04-25T10:21:51;99206.20;;;8.86
68127;BMP180;54931;52.098;21.006;2023-04-25T10:24:20;99208.00;;;8.90
68127;BMP180;54931;52.098;21.006;2023-04-25T10:26:49;99211.60;;;8.90
68127;BMP180;54931;52.098;21.006;2023-04-25T10:29:27;99210.60;;;8.98
68127;BMP180;54931;52.098;21.006;2023-04-25T10:31:57;99206.60;;;9.00
68127;BMP180;54931;52.098;21.006;2023-04-25T10:34:39;99210.00;;;9.00
68127;BMP180;54931;52.098;21.006;2023-04-25T10:37:11;99211.60;;;9.10
68127;BMP180;54931;52.098;21.006;2023-04-25T10:39:42;99210.60;;;9.10
68127;BMP180;54931;52.098;21.006;2023-04-25T10:42:11;99208.80;;;9.10
68127;BMP180;54931;52.098;21.006;2023-04-25T10:44:39;99205.20;;;9.10
68127;BMP180;54931;52.098;21.006;2023-04-25T10:47:08;99202.20;;;9.10
68127;BMP180;54931;52.098;21.006;2023-04-25T10:49:41;99204.20;;;9.10
68127;BMP180;54931;52.098;21.006;2023-04-25T10:52:34;99205.60;;;9.10
68127;BMP180;54931;52.098;21.006;2023-04-25T10:55:06;99207.00;;;9.10
68127;BMP180;54931;52.098;21.006;2023-04-25T11:00:22;99207.80;;;9.24
68127;BMP180;54931;52.098;21.006;2023-04-25T11:02:59;99206.60;;;9.40
68127;BMP180;54931;52.098;21.006;2023-04-25T11:05:34;99207.60;;;9.50
68127;BMP180;54931;52.098;21.006;2023-04-25T11:08:13;99209.20;;;9.50
68127;BMP180;54931;52.098;21.006;2023-04-25T11:10:44;99210.00;;;9.50
68127;BMP180;54931;52.098;21.006;2023-04-25T11:13:12;99216.60;;;9.60
68127;BMP180;54931;52.098;21.006;2023-04-25T11:15:40;99216.80;;;9.60
68127;BMP180;54931;52.098;21.006;2023-04-25T11:18:08;99212.40;;;9.70
68127;BMP180;54931;52.098;21.006;2023-04-25T11:20:36;99211.20;;;9.70
68127;BMP180;54931;52.098;21.006;2023-04-25T11:23:04;99207.20;;;9.72
68127;BMP180;54931;52.098;21.006;2023-04-25T11:25:33;99208.40;;;9.80
68127;BMP180;54931;52.098;21.006;2023-04-25T11:28:01;99214.00;;;9.90
68127;BMP180;54931;52.098;21.006;2023-04-25T11:30:30;99211.80;;;9.90
68127;BMP180;54931;52.098;21.006;2023-04-25T11:32:58;99210.40;;;10.00
68127;BMP180;54931;52.098;21.006;2023-04-25T11:35:26;99215.20;;;10.00
68127;BMP180;54931;52.098;21.006;2023-04-25T11:37:55;99214.00;;;10.00
68127;BMP180;54931;52.098;21.006;2023-04-25T11:40:23;99207.00;;;10.00
68127;BMP180;54931;52.098;21.006;2023-04-25T11:42:50;99205.60;;;10.00
68127;BMP180;54931;52.098;21.006;2023-04-25T11:45:18;99205.40;;;10.00
68127;BMP180;54931;52.098;21.006;2023-04-25T11:47:46;99206.20;;;10.00
68127;BMP180;54931;52.098;21.006;2023-04-25T11:50:14;99206.60;;;10.00
68127;BMP180;54931;52.098;21.006;2023-04-25T11:52:45;99204.80;;;10.00
68127;BMP180;54931;52.098;21.006;2023-04-25T11:55:18;99208.20;;;10.10
68127;BMP180;54931;52.098;21.006;2023-04-25T11:57:50;99205.00;;;10.20
68127;BMP180;54931;52.098;21.006;2023-04-25T12:00:20;99204.20;;;10.28
68127;BMP180;54931;52.098;21.006;2023-04-25T12:02:54;99200.40;;;10.30
68127;BMP180;54931;52.098;21.006;2023-04-25T12:05:30;99195.00;;;10.30
68127;BMP180;54931;52.098;21.006;2023-04-25T12:08:14;99197.40;;;10.30
68127;BMP180;54931;52.098;21.006;2023-04-25T12:10:45;99197.60;;;10.24
68127;BMP180;54931;52.098;21.006;2023-04-25T12:13:22;99200.00;;;10.20
68127;BMP180;54931;52.098;21.006;2023-04-25T12:15:51;99200.00;;;10.20
68127;BMP180;54931;52.098;21.006;2023-04-25T12:18:23;99200.60;;;10.20
68127;BMP180;54931;52.098;21.006;2023-04-25T12:20:54;99202.60;;;10.20
68127;BMP180;54931;52.098;21.006;2023-04-25T12:23:26;99201.60;;;10.14
68127;BMP180;54931;52.098;21.006;2023-04-25T12:25:55;99198.80;;;10.10
68127;BMP180;54931;52.098;21.006;2023-04-25T12:28:25;99201.40;;;10.10
68127;BMP180;54931;52.098;21.006;2023-04-25T12:31:06;99203.60;;;9.98
68127;BMP180;54931;52.098;21.006;2023-04-25T12:33:38;99198.00;;;9.90
68127;BMP180;54931;52.098;21.006;2023-04-25T12:36:07;99192.40;;;9.80
68127;BMP180;54931;52.098;21.006;2023-04-25T12:38:41;99194.40;;;9.80
68127;BMP180;54931;52.098;21.006;2023-04-25T12:41:09;99194.80;;;9.80
68127;BMP180;54931;52.098;21.006;2023-04-25T12:43:38;99190.40;;;9.82
68127;BMP180;54931;52.098;21.006;2023-04-25T12:46:06;99198.00;;;9.90
68127;BMP180;54931;52.098;21.006;2023-04-25T12:48:34;99198.40;;;9.90
68127;BMP180;54931;52.098;21.006;2023-04-25T12:51:02;99196.80;;;9.98
68127;BMP180;54931;52.098;21.006;2023-04-25T12:53:30;99199.20;;;10.00
68127;BMP180;54931;52.098;21.006;2023-04-25T12:55:58;99196.60;;;10.00
68127;BMP180;54931;52.098;21.006;2023-04-25T12:58:27;99197.40;;;10.08
68127;BMP180;54931;52.098;21.006;2023-04-25T13:00:55;99193.80;;;10.10
68127;BMP180;54931;52.098;21.006;2023-04-25T13:03:23;99195.20;;;10.10
68127;BMP180;54931;52.098;21.006;2023-04-25T13:05:52;99190.40;;;10.10
68127;BMP180;54931;52.098;21.006;2023-04-25T13:08:20;99189.20;;;10.10
68127;BMP180;54931;52.098;21.006;2023-04-25T13:10:48;99188.40;;;10.10
68127;BMP180;54931;52.098;21.006;2023-04-25T13:13:16;99185.00;;;10.20
68127;BMP180;54931;52.098;21.006;2023-04-25T13:15:44;99183.40;;;10.20
68127;BMP180;54931;52.098;21.006;2023-04-25T13:18:12;99184.00;;;10.20
68127;BMP180;54931;52.098;21.006;2023-04-25T13:20:40;99180.60;;;10.20
68127;BMP180;54931;52.098;21.006;2023-04-25T13:23:09;99180.60;;;10.20
68127;BMP180;54931;52.098;21.006;2023-04-25T13:25:38;99180.20;;;10.20
68127;BMP180;54931;52.098;21.006;2023-04-25T13:28:11;99181.40;;;10.20
68127;BMP180;54931;52.098;21.006;2023-04-25T13:30:43;99185.20;;;10.30
68127;BMP180;54931;52.098;21.006;2023-04-25T13:33:11;99183.60;;;10.36
68127;BMP180;54931;52.098;21.006;2023-04-25T13:35:40;99183.20;;;10.38
68127;BMP180;54931;52.098;21.006;2023-04-25T13:38:08;99175.40;;;10.30
68127;BMP180;54931;52.098;21.006;2023-04-25T13:40:36;99179.80;;;10.30
68127;BMP180;54931;52.098;21.006;2023-04-25T13:43:04;99177.00;;;10.20
68127;BMP180;54931;52.098;21.006;2023-04-25T13:45:34;99181.20;;;10.20
68127;BMP180;54931;52.098;21.006;2023-04-25T13:48:03;99176.20;;;10.20
68127;BMP180;54931;52.098;21.006;2023-04-25T13:50:30;99177.40;;;10.10
68127;BMP180;54931;52.098;21.006;2023-04-25T13:52:59;99173.00;;;10.10
68127;BMP180;54931;52.098;21.006;2023-04-25T13:55:28;99181.40;;;10.10
68127;BMP180;54931;52.098;21.006;2023-04-25T13:57:56;99179.00;;;10.06
68127;BMP180;54931;52.098;21.006;2023-04-25T14:00:24;99183.00;;;10.02
68127;BMP180;54931;52.098;21.006;2023-04-25T14:02:52;99181.00;;;10.00
68127;BMP180;54931;52.098;21.006;2023-04-25T14:05:21;99181.60;;;10.00
68127;BMP180;54931;52.098;21.006;2023-04-25T14:07:49;99185.60;;;10.00
68127;BMP180;54931;52.098;21.006;2023-04-25T14:10:17;99182.00;;;9.90
68127;BMP180;54931;52.098;21.006;2023-04-25T14:12:45;99178.00;;;9.80
68127;BMP180;54931;52.098;21.006;2023-04-25T14:15:13;99179.40;;;9.80
68127;BMP180;54931;52.098;21.006;2023-04-25T14:17:41;99184.00;;;9.80